German Top 6 Release | New | Movies | Games | Musik | XXX |

Herzlich Willkommen beim Movie Portal


Hier gibt es jede Menge BluRay, 3D und Xvid Movies, sowie WcW und WWE Wrestling. Wir sind bemüht alles in Bester Qualität zu halten. Wenn Du ein bestimmten Titel suchst einfach die Suchfunktion nutzen. Unsere Datenbank hat bisher mehr als 2000 Titel beinhaltet.

Die Files sind in der Regel immer Online. Sollte mal eine Datei Offline sein, wird diese schnellstes wieder geuppt. Meldet uns auch gerne wenn etwas Offline ist, oder ihr einen Spezielen uploadwunsch habt. Es ist alles Anonym und verschlüsselt. Es werden keine Daten und IP´s geloggt.

Die 100 neusten Einträge Die 200 neuesten)
Summer Musical 2011 German DL 1080p BluRay x264 Movies 8800 MB 23.04.2014 06:38:23 Uhr
The Shrine 3D HSBS 2010 German DL 1080p BluRay x264 Movies 6500 MB 23.04.2014 06:32:11 Uhr
Sleepwalker 3D 2011 HSBS German DL 1080p BluRay x264 Movies 5400 MB 23.04.2014 06:27:00 Uhr
Battle of the Year 3D HOU 2013 German DL 1080p BluRay x [...] Movies 7300 MB 23.04.2014 06:23:31 Uhr
Das Geheimnis von Kells 2009 German DL 1080p BluRay x26 [...] Movies 4300 MB 23.04.2014 06:18:31 Uhr
Holocaust (Die Geschichte der Familie Weiss) Complete D [...] Movies 3500 MB 23.04.2014 06:13:55 Uhr
He has seen War German Subbed BDRip – Xvid Movies 700 MB 23.04.2014 06:04:20 Uhr
For all Mankind The Life and Career of Mick Foley GERMA [...] Movies 4500 MB 23.04.2014 05:57:06 Uhr
WCW Greatest PPV Matches Volume 1 DVDRip x264 Movies 6400 MB 23.04.2014 05:52:43 Uhr
Die Weihnachtsgeschichte – Das größte Wunder aller Zeit [...] Movies 1200 MB 23.04.2014 05:47:31 Uhr
Koenig der Koenige 1961 German AC3 BluRay 1080p x264 Movies 7400 MB 23.04.2014 05:41:59 Uhr
Die zehn Gebote 1956 German AC3 BluRay 1080p x264 Movies 10700 MB 23.04.2014 05:34:30 Uhr
Arabische Naechte 1942 German DL 1080p BluRay x264 Movies 6600 MB 23.04.2014 05:23:35 Uhr
Ali Baba und die vierzig Raeuber 1944 German DL 1080p B [...] Movies 6600 MB 23.04.2014 05:13:25 Uhr
Good Morning Vietnam 1987 German DL 1080p BluRay x264 Movies 8800 MB 23.04.2014 05:09:05 Uhr
Cheap Thrills 2013 German DL 1080p BluRay x264 Movies 7300 MB 23.04.2014 05:04:43 Uhr
Das erstaunliche Leben des Walter Mitty German DL 1080p [...] Movies 7600 MB 23.04.2014 04:59:26 Uhr
Midnight Express-12 Uhr nachts 1978 German AC3 DL 1080p [...] Movies 10000 MB 23.04.2014 04:54:22 Uhr
Die Voegel 1963 German DL 1080p BluRay x264 Movies 8200 MB 23.04.2014 04:47:25 Uhr
Die Goonies 1985 German AC3 1080p BluRay x264 Movies 9200 MB 23.04.2014 04:43:12 Uhr
The American President - Hallo Mr. President 1995 Germa [...] Movies 8300 MB 23.04.2014 04:37:48 Uhr
Stalingrad 1993 German DTS 1080p BluRay x264 Movies 12700 MB 23.04.2014 04:31:49 Uhr
Zero Gravity Antrieb Ueberleben 2012 German DL DTS 1080 [...] Movies 6700 MB 23.04.2014 04:27:25 Uhr
Projekt Peacemaker 1997 German DL 1080p BluRay x264 Movies 8300 MB 23.04.2014 04:23:22 Uhr
Windtalkers 2002 German DL 1080p BluRay x264 Movies 9400 MB 23.04.2014 04:17:37 Uhr
WWE Wrestlemania 30 - 2014 Deutsch Xvid Movies 2200 MB 10.04.2014 07:04:03 Uhr
Der Hobbit Smaugs Einoede German DL 1080p BluRay x264 Movies 9100 MB 06.04.2014 13:29:59 Uhr
Der Hobbit Smaugs Einoede 3D HOU German DL DTS 1080p Bl [...] Movies 9700 MB 05.04.2014 09:47:08 Uhr
Ice Age 3 3D H-SBS German DL 1080p BluRay x264 Movies 5600 MB 03.04.2014 05:37:20 Uhr
47 Ronin 3D H-SBS German DL DTS 5.1 1080p BluRay x264 Movies 12900 MB 03.04.2014 05:32:19 Uhr
Wunder des Waldes 3D H-SBS German DL 1080p BluRay x264 Movies 5500 MB 03.04.2014 05:28:28 Uhr
Barabbas Teil 2 German DL 1080p BluRay x264 Movies 7800 MB 03.04.2014 05:24:16 Uhr
Barabbas Teil 1 German DL 1080p BluRay x264 Movies 9200 MB 03.04.2014 05:23:07 Uhr
Hulk Hogan Der Hammer German DL 1080p BluRay x264 Movies 6800 MB 03.04.2014 05:17:16 Uhr
Die Saurier Revolution 3D H-OU 2013 German BluRay Movies 11400 MB 29.03.2014 07:23:39 Uhr
Faszination Island - Das Paradies des Nordens 2012 3D H [...] Movies 2900 MB 29.03.2014 07:18:37 Uhr
Der Dschungel - Zauber einer anderen Welt 3D H-OU Germa [...] Movies 7000 MB 29.03.2014 07:12:41 Uhr
Die fantastische Reise der Vögel 3D H-SBS German DL 108 [...] Movies 12000 MB 29.03.2014 07:06:19 Uhr
Freedom Force 3D H-SBS German DL 1080p BluRay x264 Movies 6900 MB 29.03.2014 07:01:42 Uhr
Enders Game 2013 German DL DTS 1080p BluRay x264 Movies 6700 MB 29.03.2014 06:56:46 Uhr
Die Mumie Trilogie German 1080p BluRay DTS x264 Filme e [...] Movies 29400 MB 29.03.2014 06:49:44 Uhr
Teen Wolf 1985 German DL AC3 1080p BluRay x264 Movies 7300 MB 29.03.2014 06:44:17 Uhr
Gone German DL 1080p BluRay x264 Movies 4500 MB 29.03.2014 06:35:00 Uhr
Gullivers Reisen 1939 German DL 1080p BluRay x264 Movies 6000 MB 29.03.2014 06:31:03 Uhr
Laurel & Hardy Kurzfilm Collection German Xvid Movies 6900 MB 29.03.2014 06:26:09 Uhr
Laurel & Hardy Filmklassiker Collection German Xvid Movies 8000 MB 29.03.2014 06:22:11 Uhr
Die Eiskoenigin Voellig unverfroren 3D H-OU German DL 1 [...] Movies 6000 MB 16.03.2014 12:21:27 Uhr
Die Eiskoenigin Voellig unverfroren German DL 1080p Blu [...] Movies 4900 MB 15.03.2014 12:20:45 Uhr
Die Eiskoenigin Voellig unverfroren German BDRiP x264 Movies 990 MB 15.03.2014 07:23:37 Uhr
Rapunzel Neu verfoehnt 3D H.SBS German DL 1080p BluRay [...] Movies 4900 MB 15.03.2014 06:06:31 Uhr
Cabin Fever 2 3D H.SBS German DL 1080p BluRay x264 Movies 3500 MB 15.03.2014 06:01:50 Uhr
Cabin Fever 3D H.SBS German DL 1080p BluRay x264 Movies 3900 MB 15.03.2014 05:57:07 Uhr
Die Tribute von Panem Catching Fire German DTS DL 1080p [...] Movies 8000 MB 15.03.2014 05:50:58 Uhr
Escape Plan German DL 1080p BluRay x264 Movies 5200 MB 15.03.2014 05:46:19 Uhr
The Hungover Games UNRATED 2014 German AC3 DVDRip x264 Movies 1200 MB 15.03.2014 05:42:31 Uhr
Ich weiss was du letzten Sommer getan hast 1997 German [...] Movies 4800 MB 15.03.2014 05:38:17 Uhr
Rapunzel Neu verfoehnt 2010 1080p BluRay DTS DL x264 Movies 10250 MB 15.03.2014 05:34:51 Uhr
Der Mann der zuviel wusste 1956 German DTS DL 1080p Blu [...] Movies 13550 MB 15.03.2014 05:27:37 Uhr
Schlau wie eine Ziege (Goat Story 2) 2012 German 3D H-O [...] Movies 5900 MB 08.03.2014 05:55:52 Uhr
Konferenz der Tiere 3D German H.SBS DTS 1080p x264 Movies 4800 MB 08.03.2014 05:47:21 Uhr
Der Butler 2014 German DL DTS 1080p BluRay x264 Movies 12800 MB 08.03.2014 05:41:29 Uhr
Annie 1982 German DL 1080p BluRay x264 Movies 11600 MB 08.03.2014 05:34:35 Uhr
Das Fenster zum Hof 1954 German DTS DL 1080p BluRay x26 [...] Movies 11500 MB 08.03.2014 05:28:13 Uhr
Reichtum ist keine Schande 1979 German DL 1080p BluRay [...] Movies 6600 MB 08.03.2014 05:24:27 Uhr
Marley und Ich 2008 German DTS 1080p x264 Movies 7500 MB 08.03.2014 05:19:56 Uhr
Indiana Jones und das Koenigreich des Kristallschaedels [...] Movies 10000 MB 08.03.2014 05:15:31 Uhr
Das Vermaechtnis des geheimen Buches 2007 German DL 108 [...] Movies 7800 MB 08.03.2014 05:11:19 Uhr
Das Vermaechtnis der Tempelritter 2004 German DL 1 080p [...] Movies 7400 MB 08.03.2014 05:07:56 Uhr
Die Maske II Son of the Mask 2005 German AC3D DL 1080p [...] Movies 7000 MB 08.03.2014 05:04:16 Uhr
Die Maske 1994 AC3D German 1080p BluRay x264 Movies 8000 MB 08.03.2014 05:00:07 Uhr
Thor The Dark Kingdom 3D H-OU 2013 German DL Retail 108 [...] Movies 8200 MB 02.03.2014 04:51:31 Uhr
Indien - Auf den Spuren des Tigers 2013 3D H-OU 1080p D [...] Movies 12800 MB 01.03.2014 05:46:55 Uhr
Goat Story 2 (Schlau wie eine Ziege) 2012 German 1080p [...] Movies 4200 MB 01.03.2014 05:41:40 Uhr
Sammys Abenteuer 2 2012 German DTS 1080p BluRay x264 Movies 7100 MB 01.03.2014 05:37:37 Uhr
Indiana Jones Jaeger des verlorenen Schatzes 1981 Germa [...] Movies 10500 MB 01.03.2014 05:32:35 Uhr
Sleepwalkers Schlafwandler 1992 German AC3D DL 1080p Bl [...] Movies 6700 MB 01.03.2014 05:23:06 Uhr
Kull Der Eroberer 1997 German DL 1080p BluRay x264 Movies 6800 MB 01.03.2014 05:19:13 Uhr
Pocahontas 2 Reise in eine neue Welt German 1998 DL 108 [...] Movies 3500 MB 01.03.2014 05:06:24 Uhr
Frequency 2000 German AC3D DL 1080p BluRay x264 Movies 8100 MB 01.03.2014 04:58:53 Uhr
Hellboy Directors Cut 2004 German DL 1080p BluRay x264 Movies 10800 MB 01.03.2014 04:54:45 Uhr
Auf dem Highway ist die Hoelle los 1981 GERMAN AC3D DL [...] Movies 6000 MB 01.03.2014 04:46:18 Uhr
WWE Elimination Chamber (No Escape) 2014 Deutsch Xvid Movies 1700 MB 25.02.2014 09:03:17 Uhr
Wolkig mit Aussicht auf Fleischbaellchen 2 2013 3D H-OU [...] Movies 8700 MB 22.02.2014 07:26:38 Uhr
Delfine 2013 3D H-OU German DL 1080p Bluray X264 Movies 4700 MB 22.02.2014 07:20:35 Uhr
Tiere der Serengeti 2014 3D H-OU 1080p German x264 Movies 5500 MB 22.02.2014 07:14:44 Uhr
Serengeti 3D H-OU German 1080p BluRay DTS-HD 5.1 x264 Movies 5500 MB 22.02.2014 07:07:58 Uhr
Space Junk 2012 3D H-OU German DL 1080p Bluray X264 Movies 3500 MB 22.02.2014 07:02:43 Uhr
Bolt Ein Hund fuer alle Faelle 3D H-SBS 2008 German DL [...] Movies 4500 MB 22.02.2014 06:58:04 Uhr
Cabin Fever 3 Patient Zero 3D H-SBS 2014 German DL 1080 [...] Movies 3900 MB 22.02.2014 06:52:38 Uhr
Cabin Fever 3 Patient Zero 2014 German DL 1080p BluRay [...] Movies 3800 MB 22.02.2014 06:47:06 Uhr
WWE Goldberg The Ultimate Collection German DL 3x DVD5 Movies 13200 MB 20.02.2014 05:08:51 Uhr
The Tall Man 2012 German DL 1080p BluRay x264 Movies 4400 MB 20.02.2014 05:00:52 Uhr
Unten am Fluss 1978 German DL 1080p BluRay x264 Movies 4800 MB 20.02.2014 04:56:47 Uhr
Die Gluecksritter 1983 GERMAN AC3D DL 1080p BluRay x264 Movies 11000 MB 20.02.2014 04:52:56 Uhr
Das Netz 1995 German DL 1080p BluRay x264 Movies 8800 MB 20.02.2014 04:48:42 Uhr
Die Nacht der Abenteuer 1987 German AC3 DL 1080p BluRay [...] Movies 8000 MB 20.02.2014 04:45:34 Uhr
Und taeglich gruesst das Murmeltier 1993 German DL 1080 [...] Movies 8100 MB 20.02.2014 04:41:06 Uhr
Bernard und Bianca im Kaenguruhland 1990 German DL 1080 [...] Movies 8600 MB 20.02.2014 04:37:51 Uhr
Bernard und Bianca Die Maeusepolizei 1977 German DL 108 [...] Movies 8000 MB 20.02.2014 04:33:37 Uhr
Robur - Der Herr der sieben Kontinente 1961 German Xvid Movies 1100 MB 20.02.2014 04:29:13 Uhr
Die 10 beliebtesten Einträge (Letzter Reset: 29.07.2009 @ 16:33)
2531 Ice Age 4 Voll verschoben 3D.H.SBS.BDRip.1080p.Pleaders Movies 1700 MB 19.05.2012 03:05:47 Uhr
2269 Ice Age 2 Jetzt tauts 2006 German DL AC3 1080p BluRay x [...] Movies 9200 MB 03.05.2013 06:00:50 Uhr
1990 Starship Troopers 3 Marauder German TrueHD 1080p Xvid Movies 895 MB 05.01.2012 14:07:02 Uhr
1858 Avatar 3D.1080p.Half.SBS.BluRay Extended MeB Movies 19810 MB 04.05.2012 04:41:39 Uhr
1780 Michel aus Lönneberga COMPLETE German Xvid Serien 2200 MB 05.01.2013 04:22:38 Uhr
1630 Epic Verborgenes Königreich 3D – H.SBS 1080p Movies 2700 MB 15.05.2013 15:14:23 Uhr
1626 Iron Man 3 3D H-ou.1080p x264 riders Movies 1600 MB 15.05.2013 15:11:39 Uhr
1241 Die Bestimmer Kinder haften für ihre Eltern DvD.Rip xvi [...] Movies 1900 MB 15.02.2013 11:36:29 Uhr
1221 Star Trek Into Darknes 3D.HOU.1080p German HD.BD.Rip Dm [...] Movies 2600 MB 15.05.2013 15:13:04 Uhr
1219 Ice Age 4 Voll verschoben 3D.BDRip.LD.TOPDDL Movies 1900 MB 26.06.2012 02:45:58 Uhr